createdAt,value
2023-01-15T00:01:04.811Z,62.89
2023-01-15T00:05:09.325Z,63.13
2023-01-15T00:09:10.895Z,63.05
2023-01-15T00:13:11.044Z,62.82
2023-01-15T00:17:11.112Z,62.87
2023-01-15T00:21:15.855Z,63.18
2023-01-15T00:25:28.439Z,63.66
2023-01-15T00:29:29.834Z,62.94
2023-01-15T00:33:30.689Z,63.07
2023-01-15T00:37:33.359Z,63.14
2023-01-15T00:41:33.467Z,63.39
2023-01-15T00:45:33.560Z,62.71
2023-01-15T00:49:33.604Z,62.36
2023-01-15T00:53:37.200Z,62.16
2023-01-15T00:57:37.493Z,62.48
2023-01-15T01:01:38.058Z,62.96
2023-01-15T01:05:38.875Z,62.38
2023-01-15T01:09:41.585Z,62.52
2023-01-15T01:13:41.970Z,63.09
2023-01-15T01:17:42.873Z,62.77
2023-01-15T01:21:45.387Z,62.86
2023-01-15T01:25:48.474Z,62.95
2023-01-15T01:29:48.542Z,62.22
2023-01-15T01:33:51.462Z,62.47
2023-01-15T01:37:53.725Z,62.19
2023-01-15T01:41:58.575Z,61.48
2023-01-15T01:45:59.366Z,62.00
2023-01-15T01:50:07.824Z,61.01
2023-01-15T01:54:10.382Z,61.08
2023-01-15T01:58:16.187Z,61.18
2023-01-15T02:02:16.969Z,60.39
2023-01-15T02:06:18.688Z,60.46
2023-01-15T02:10:20.109Z,60.38
2023-01-15T02:14:33.682Z,59.94
2023-01-15T02:18:46.162Z,59.61
2023-01-15T02:23:13.771Z,59.28
2023-01-15T02:27:20.922Z,60.33
2023-01-15T02:31:29.972Z,58.86
2023-01-15T02:35:37.605Z,58.33
2023-01-15T02:39:43.417Z,57.63
2023-01-15T02:43:50.621Z,56.58
2023-01-15T02:47:51.745Z,56.08
2023-01-15T02:52:00.479Z,56.56
2023-01-15T02:56:09.665Z,56.69
2023-01-15T03:00:26.404Z,56.60
2023-01-15T03:04:35.351Z,57.70
2023-01-15T03:08:35.840Z,57.54
2023-01-15T03:13:00.419Z,57.71
2023-01-15T03:17:17.730Z,57.58
2023-01-15T03:21:28.506Z,56.64
2023-01-15T03:25:36.897Z,56.89
2023-01-15T03:29:44.366Z,57.03
2023-01-15T03:33:48.349Z,56.73
2023-01-15T03:37:52.239Z,56.12
2023-01-15T03:42:08.205Z,56.18
2023-01-15T03:46:19.363Z,56.21
2023-01-15T03:50:35.033Z,55.02
2023-01-15T03:54:49.563Z,55.27
2023-01-15T03:58:59.358Z,54.86
2023-01-15T04:03:14.324Z,54.75
2023-01-15T04:07:17.691Z,55.36
2023-01-15T04:11:27.164Z,54.69
2023-01-15T04:15:34.030Z,53.90
2023-01-15T04:19:35.487Z,53.64
2023-01-15T04:23:44.500Z,53.49
2023-01-15T04:27:44.496Z,53.29
2023-01-15T04:31:44.596Z,53.14
2023-01-15T04:35:47.011Z,53.23
2023-01-15T04:39:50.209Z,53.22
2023-01-15T04:44:02.791Z,53.05
2023-01-15T04:48:02.840Z,53.10
2023-01-15T04:52:02.897Z,53.52
2023-01-15T04:56:09.913Z,53.63
2023-01-15T05:00:12.798Z,53.70
2023-01-15T05:04:13.256Z,53.61
2023-01-15T05:08:13.413Z,54.33
2023-01-15T05:12:16.162Z,54.43
2023-01-15T05:16:19.247Z,55.24
2023-01-15T05:20:19.778Z,55.80
2023-01-15T05:24:21.038Z,56.53
2023-01-15T05:28:23.675Z,57.14
2023-01-15T05:32:23.688Z,58.13
2023-01-15T05:36:27.461Z,57.93
2023-01-15T05:40:27.528Z,57.02
2023-01-15T05:44:32.764Z,57.16
2023-01-15T05:48:32.850Z,57.12
2023-01-15T05:52:32.892Z,58.24
2023-01-15T05:56:33.005Z,59.01
2023-01-15T06:00:35.861Z,58.90
2023-01-15T06:04:36.250Z,58.32
2023-01-15T06:08:36.421Z,57.61
2023-01-15T06:12:36.656Z,57.34
2023-01-15T06:16:41.163Z,57.93
2023-01-15T06:20:43.464Z,58.11
2023-01-15T06:24:43.492Z,58.00
2023-01-15T06:28:44.197Z,58.21
2023-01-15T06:32:46.895Z,57.49
2023-01-15T06:36:46.974Z,57.54
2023-01-15T06:40:47.092Z,57.72
2023-01-15T06:44:59.662Z,57.66
2023-01-15T06:49:02.393Z,57.16
2023-01-15T06:53:02.495Z,57.42
2023-01-15T06:57:02.733Z,57.58
2023-01-15T07:01:02.998Z,57.23
2023-01-15T07:05:06.038Z,57.50
2023-01-15T07:09:06.322Z,57.55
2023-01-15T07:13:07.338Z,57.54
2023-01-15T07:17:07.423Z,57.93
2023-01-15T07:21:10.237Z,57.29
2023-01-15T07:25:12.978Z,57.66
2023-01-15T07:29:13.159Z,57.35
2023-01-15T07:33:13.169Z,56.91
2023-01-15T07:37:15.851Z,57.14
2023-01-15T07:41:28.424Z,57.57
2023-01-15T07:45:41.025Z,59.27
2023-01-15T07:49:50.306Z,60.44
2023-01-15T07:53:53.009Z,61.47
2023-01-15T07:57:53.990Z,61.05
2023-01-15T08:01:54.626Z,61.27
2023-01-15T08:05:56.800Z,62.04
2023-01-15T08:09:59.633Z,62.12
2023-01-15T08:14:12.198Z,62.11
2023-01-15T08:18:12.654Z,62.03
2023-01-15T08:22:14.094Z,62.46
2023-01-15T08:26:16.828Z,63.11
2023-01-15T08:30:21.521Z,63.49
2023-01-15T08:34:21.928Z,64.16
2023-01-15T08:38:22.072Z,64.64
2023-01-15T08:42:25.554Z,63.90
2023-01-15T08:46:25.887Z,64.02
2023-01-15T08:50:26.220Z,65.78
2023-01-15T08:54:27.283Z,65.31
2023-01-15T08:58:31.576Z,65.81
2023-01-15T09:02:32.220Z,65.00
2023-01-15T09:06:32.337Z,64.83
2023-01-15T09:10:32.377Z,64.47
2023-01-15T09:14:59.276Z,63.69
2023-01-15T09:18:55.233Z,63.61
2023-01-15T09:22:55.884Z,62.48
2023-01-15T09:26:55.943Z,62.83
2023-01-15T09:30:58.848Z,64.19
2023-01-15T09:34:58.988Z,63.72
2023-01-15T09:38:59.676Z,62.82
2023-01-15T09:43:11.410Z,62.67
2023-01-15T09:47:20.998Z,62.31
2023-01-15T09:51:35.792Z,62.76
2023-01-15T09:55:45.040Z,63.02
2023-01-15T09:59:50.499Z,62.22
2023-01-15T10:04:03.766Z,62.01
2023-01-15T10:08:12.755Z,62.32
2023-01-15T10:12:35.184Z,62.26
2023-01-15T10:16:36.813Z,61.92
2023-01-15T10:21:05.430Z,61.29
2023-01-15T10:25:17.597Z,61.03
2023-01-15T10:29:30.163Z,60.83
2023-01-15T10:34:02.932Z,61.68
2023-01-15T10:38:21.091Z,62.38
2023-01-15T10:42:40.706Z,61.67
2023-01-15T10:46:43.953Z,62.71
2023-01-15T10:50:45.549Z,62.71
2023-01-15T10:54:54.682Z,61.89
2023-01-15T10:59:05.520Z,62.17
2023-01-15T11:03:15.218Z,62.00
2023-01-15T11:07:16.397Z,62.04
2023-01-15T11:11:40.556Z,61.09
2023-01-15T11:15:54.611Z,60.36
2023-01-15T11:19:56.380Z,60.36
2023-01-15T11:24:00.357Z,59.70
2023-01-15T11:28:10.422Z,61.29
2023-01-15T11:32:26.719Z,60.55
2023-01-15T11:36:32.417Z,60.82
2023-01-15T11:40:33.752Z,60.42
2023-01-15T11:44:50.234Z,60.66
2023-01-15T11:49:04.845Z,61.31
2023-01-15T11:53:05.983Z,61.62
2023-01-15T11:57:07.640Z,62.42
2023-01-15T12:01:12.202Z,61.94
2023-01-15T12:05:21.574Z,61.44
2023-01-15T12:09:43.058Z,61.82
2023-01-15T12:13:59.887Z,61.76
2023-01-15T12:18:51.082Z,61.80
2023-01-15T12:23:37.437Z,61.27
2023-01-15T12:28:07.988Z,62.72
2023-01-15T12:32:15.955Z,63.45
2023-01-15T12:36:25.148Z,62.31
2023-01-15T12:40:31.502Z,62.23
2023-01-15T12:44:54.289Z,62.55
2023-01-15T12:49:03.440Z,63.11
2023-01-15T12:53:17.021Z,63.45
2023-01-15T12:57:27.015Z,63.70
2023-01-15T13:01:40.944Z,63.24
2023-01-15T13:05:50.147Z,63.17
2023-01-15T13:10:07.673Z,63.87
2023-01-15T13:14:18.130Z,63.34
2023-01-15T13:18:33.392Z,63.27
2023-01-15T13:22:36.826Z,63.49
2023-01-15T13:27:24.372Z,63.24
2023-01-15T13:31:53.054Z,62.46
2023-01-15T13:35:58.356Z,62.89
2023-01-15T13:40:04.276Z,63.11
2023-01-15T13:44:07.300Z,63.00
2023-01-15T13:48:15.248Z,63.01
2023-01-15T13:52:29.356Z,62.64
2023-01-15T13:56:33.490Z,62.93
2023-01-15T14:00:40.449Z,63.04
2023-01-15T14:04:42.868Z,61.87
2023-01-15T14:08:45.682Z,61.09
2023-01-15T14:13:01.198Z,61.64
2023-01-15T14:17:28.516Z,62.60
2023-01-15T14:21:44.437Z,63.69
2023-01-15T14:26:01.664Z,63.46
2023-01-15T14:30:40.315Z,64.91
2023-01-15T14:34:44.706Z,64.73
2023-01-15T14:38:52.402Z,64.54
2023-01-15T14:43:10.607Z,63.51
2023-01-15T14:47:33.128Z,63.84
2023-01-15T14:51:50.620Z,63.93
2023-01-15T14:55:54.667Z,63.20
2023-01-15T15:00:04.134Z,63.25
2023-01-15T15:04:25.072Z,62.85
2023-01-15T15:08:36.005Z,62.28
2023-01-15T15:12:45.354Z,62.68
2023-01-15T15:16:53.913Z,62.66
2023-01-15T15:21:04.417Z,63.12
2023-01-15T15:25:22.319Z,63.21
2023-01-15T15:29:24.919Z,62.41
2023-01-15T15:33:28.907Z,62.14
2023-01-15T15:37:32.814Z,62.49
2023-01-15T15:41:52.863Z,62.48
2023-01-15T15:46:11.479Z,62.06
2023-01-15T15:50:24.219Z,61.94
2023-01-15T15:54:26.928Z,61.15
2023-01-15T15:58:36.962Z,61.33
2023-01-15T16:02:41.805Z,61.61
2023-01-15T16:06:41.925Z,60.67
2023-01-15T16:10:42.344Z,59.95
2023-01-15T16:14:45.179Z,60.36
2023-01-15T16:18:50.088Z,60.26
2023-01-15T16:22:57.439Z,60.07
2023-01-15T16:27:11.979Z,59.64
2023-01-15T16:31:18.044Z,59.58
2023-01-15T16:35:22.695Z,59.88
2023-01-15T16:39:28.224Z,58.96
2023-01-15T16:43:29.963Z,58.72
2023-01-15T16:47:35.776Z,59.47
2023-01-15T16:51:42.213Z,59.54
2023-01-15T16:55:46.741Z,58.95
2023-01-15T17:00:02.929Z,58.80
2023-01-15T17:04:07.237Z,58.37
2023-01-15T17:08:08.022Z,58.20
2023-01-15T17:12:20.652Z,58.20
2023-01-15T17:16:22.773Z,58.66
2023-01-15T17:20:30.055Z,58.37
2023-01-15T17:24:30.285Z,59.05
2023-01-15T17:28:30.568Z,58.99
2023-01-15T17:32:37.204Z,58.79
2023-01-15T17:36:40.232Z,59.24
2023-01-15T17:40:40.458Z,59.92
2023-01-15T17:44:40.564Z,59.70
2023-01-15T17:48:40.913Z,60.08
2023-01-15T17:52:43.933Z,59.64
2023-01-15T17:56:57.405Z,59.44
2023-01-15T18:01:11.411Z,59.39
2023-01-15T18:05:35.261Z,58.30
2023-01-15T18:09:39.451Z,58.71
2023-01-15T18:13:41.987Z,59.06
2023-01-15T18:17:42.076Z,59.26
2023-01-15T18:21:44.390Z,59.29
2023-01-15T18:25:48.720Z,59.88
2023-01-15T18:29:48.902Z,59.73
2023-01-15T18:33:49.369Z,59.17
2023-01-15T18:37:50.355Z,59.39
2023-01-15T18:42:05.492Z,58.70
2023-01-15T18:46:29.500Z,59.13
2023-01-15T18:50:29.571Z,59.22
2023-01-15T18:54:30.141Z,58.46
2023-01-15T18:58:33.973Z,57.72
2023-01-15T19:02:34.437Z,58.44
2023-01-15T19:06:36.251Z,58.28
2023-01-15T19:10:37.367Z,57.61
2023-01-15T19:14:52.547Z,57.49
2023-01-15T19:18:55.289Z,57.30
2023-01-15T19:23:05.159Z,56.89
2023-01-15T19:27:06.215Z,56.48
2023-01-15T19:31:23.089Z,55.81
2023-01-15T19:35:24.282Z,55.20
2023-01-15T19:39:24.408Z,54.53
2023-01-15T19:43:37.067Z,54.38
2023-01-15T19:47:55.884Z,54.38
2023-01-15T19:52:11.199Z,54.63
2023-01-15T19:56:11.839Z,54.47
2023-01-15T20:00:16.278Z,54.27
2023-01-15T20:04:18.927Z,53.85
2023-01-15T20:08:19.204Z,53.37
2023-01-15T20:12:31.741Z,53.28
2023-01-15T20:16:31.914Z,52.99
2023-01-15T20:20:34.945Z,52.64
2023-01-15T20:24:35.138Z,52.78
2023-01-15T20:28:36.084Z,53.10
2023-01-15T20:32:36.361Z,52.53
2023-01-15T20:36:39.072Z,53.12
2023-01-15T20:40:39.352Z,53.62
2023-01-15T20:44:51.995Z,53.99
2023-01-15T20:49:04.625Z,53.72
2023-01-15T20:53:10.549Z,55.13
2023-01-15T20:57:10.567Z,55.23
2023-01-15T21:01:12.104Z,54.81
2023-01-15T21:05:13.331Z,55.81
2023-01-15T21:09:16.124Z,56.02
2023-01-15T21:13:16.166Z,55.95
2023-01-15T21:17:16.527Z,55.94
2023-01-15T21:21:19.762Z,55.55
2023-01-15T21:25:22.553Z,55.79
2023-01-15T21:29:24.266Z,56.62
2023-01-15T21:33:24.388Z,55.89
2023-01-15T21:37:24.650Z,56.30
2023-01-15T21:41:48.572Z,56.52
2023-01-15T21:45:48.787Z,56.56
2023-01-15T21:49:49.623Z,56.34
2023-01-15T21:53:49.699Z,56.96
2023-01-15T21:57:52.480Z,57.27
2023-01-15T22:01:55.370Z,57.44
2023-01-15T22:05:55.605Z,56.75
2023-01-15T22:09:55.637Z,57.18
2023-01-15T22:13:58.281Z,57.92
2023-01-15T22:17:59.439Z,58.14
2023-01-15T22:22:04.427Z,57.62
2023-01-15T22:26:04.832Z,57.65
2023-01-15T22:30:09.377Z,57.90
2023-01-15T22:34:09.875Z,57.76
2023-01-15T22:38:11.141Z,57.64
2023-01-15T22:42:26.661Z,57.33
2023-01-15T22:46:29.337Z,57.71
2023-01-15T22:50:29.468Z,57.82
2023-01-15T22:54:29.645Z,58.29
2023-01-15T22:58:29.734Z,57.70
2023-01-15T23:02:44.818Z,58.05
2023-01-15T23:06:45.420Z,57.81
2023-01-15T23:10:47.655Z,57.87
2023-01-15T23:14:47.712Z,57.74
2023-01-15T23:18:51.277Z,57.95
2023-01-15T23:22:51.311Z,57.80
2023-01-15T23:26:51.498Z,57.98
2023-01-15T23:30:51.696Z,58.08
2023-01-15T23:34:54.483Z,58.25
2023-01-15T23:38:54.554Z,58.45
2023-01-15T23:43:07.640Z,58.38
2023-01-15T23:47:08.320Z,58.17
2023-01-15T23:51:11.066Z,58.24
2023-01-15T23:55:12.797Z,57.98
2023-01-15T23:59:12.843Z,58.27
